sensor_id;sensor_type;location;lat;lon;timestamp;P1;durP1;ratioP1;P2;durP2;ratioP2
48685;SDS011;34485;51.536;3.816;2023-07-31T00:01:15;22.60;;;7.83;;
48685;SDS011;34485;51.536;3.816;2023-07-31T00:03:40;19.00;;;6.20;;
48685;SDS011;34485;51.536;3.816;2023-07-31T00:06:06;16.75;;;6.10;;
48685;SDS011;34485;51.536;3.816;2023-07-31T00:08:31;26.60;;;5.87;;
48685;SDS011;34485;51.536;3.816;2023-07-31T00:10:57;19.57;;;6.20;;
48685;SDS011;34485;51.536;3.816;2023-07-31T00:13:22;18.35;;;4.97;;
48685;SDS011;34485;51.536;3.816;2023-07-31T00:15:48;13.13;;;5.50;;
48685;SDS011;34485;51.536;3.816;2023-07-31T00:18:14;22.77;;;7.25;;
48685;SDS011;34485;51.536;3.816;2023-07-31T00:20:40;21.05;;;6.50;;
48685;SDS011;34485;51.536;3.816;2023-07-31T00:23:05;12.33;;;5.67;;
48685;SDS011;34485;51.536;3.816;2023-07-31T00:25:31;25.27;;;7.27;;
48685;SDS011;34485;51.536;3.816;2023-07-31T00:27:57;17.42;;;5.53;;
48685;SDS011;34485;51.536;3.816;2023-07-31T00:30:22;23.87;;;6.70;;
48685;SDS011;34485;51.536;3.816;2023-07-31T00:32:50;24.23;;;7.22;;
48685;SDS011;34485;51.536;3.816;2023-07-31T00:35:15;19.40;;;6.73;;
48685;SDS011;34485;51.536;3.816;2023-07-31T00:37:41;23.40;;;6.32;;
48685;SDS011;34485;51.536;3.816;2023-07-31T00:40:07;26.60;;;5.50;;
48685;SDS011;34485;51.536;3.816;2023-07-31T00:42:33;23.33;;;7.00;;
48685;SDS011;34485;51.536;3.816;2023-07-31T00:44:59;14.95;;;6.80;;
48685;SDS011;34485;51.536;3.816;2023-07-31T00:47:24;18.03;;;6.57;;
48685;SDS011;34485;51.536;3.816;2023-07-31T00:49:50;20.95;;;7.10;;
48685;SDS011;34485;51.536;3.816;2023-07-31T00:52:16;26.90;;;7.53;;
48685;SDS011;34485;51.536;3.816;2023-07-31T00:54:43;18.15;;;6.70;;
48685;SDS011;34485;51.536;3.816;2023-07-31T00:57:09;28.73;;;7.70;;
48685;SDS011;34485;51.536;3.816;2023-07-31T00:59:35;24.83;;;7.55;;
48685;SDS011;34485;51.536;3.816;2023-07-31T01:02:00;17.47;;;6.70;;
48685;SDS011;34485;51.536;3.816;2023-07-31T01:04:27;17.80;;;6.63;;
48685;SDS011;34485;51.536;3.816;2023-07-31T01:06:56;21.08;;;7.07;;
48685;SDS011;34485;51.536;3.816;2023-07-31T01:09:52;21.25;;;6.18;;
48685;SDS011;34485;51.536;3.816;2023-07-31T01:12:35;21.47;;;6.83;;
48685;SDS011;34485;51.536;3.816;2023-07-31T01:15:06;19.65;;;6.78;;
48685;SDS011;34485;51.536;3.816;2023-07-31T01:17:35;22.55;;;7.93;;
48685;SDS011;34485;51.536;3.816;2023-07-31T01:20:02;18.10;;;7.50;;
48685;SDS011;34485;51.536;3.816;2023-07-31T01:28:02;23.77;;;7.03;;
48685;SDS011;34485;51.536;3.816;2023-07-31T01:30:34;29.40;;;8.85;;
48685;SDS011;34485;51.536;3.816;2023-07-31T01:33:11;18.90;;;7.03;;
48685;SDS011;34485;51.536;3.816;2023-07-31T01:35:37;16.23;;;6.03;;
48685;SDS011;34485;51.536;3.816;2023-07-31T01:38:04;17.63;;;6.95;;
48685;SDS011;34485;51.536;3.816;2023-07-31T01:40:30;19.60;;;6.70;;
48685;SDS011;34485;51.536;3.816;2023-07-31T01:42:55;27.57;;;7.20;;
48685;SDS011;34485;51.536;3.816;2023-07-31T01:45:21;17.08;;;6.93;;
48685;SDS011;34485;51.536;3.816;2023-07-31T01:47:47;25.33;;;7.53;;
48685;SDS011;34485;51.536;3.816;2023-07-31T01:50:12;24.07;;;7.53;;
48685;SDS011;34485;51.536;3.816;2023-07-31T01:52:38;18.13;;;7.30;;
48685;SDS011;34485;51.536;3.816;2023-07-31T01:55:04;20.87;;;7.00;;
48685;SDS011;34485;51.536;3.816;2023-07-31T01:57:29;22.42;;;7.43;;
48685;SDS011;34485;51.536;3.816;2023-07-31T01:59:55;16.00;;;6.60;;
48685;SDS011;34485;51.536;3.816;2023-07-31T02:02:21;21.73;;;6.93;;
48685;SDS011;34485;51.536;3.816;2023-07-31T02:04:48;21.48;;;6.20;;
48685;SDS011;34485;51.536;3.816;2023-07-31T02:07:14;12.65;;;6.50;;
48685;SDS011;34485;51.536;3.816;2023-07-31T02:09:40;20.17;;;7.30;;
48685;SDS011;34485;51.536;3.816;2023-07-31T02:12:05;17.17;;;6.70;;
48685;SDS011;34485;51.536;3.816;2023-07-31T02:14:33;20.23;;;6.80;;
48685;SDS011;34485;51.536;3.816;2023-07-31T02:16:59;19.77;;;6.38;;
48685;SDS011;34485;51.536;3.816;2023-07-31T02:19:25;20.58;;;6.20;;
48685;SDS011;34485;51.536;3.816;2023-07-31T02:21:50;18.50;;;5.83;;
48685;SDS011;34485;51.536;3.816;2023-07-31T02:24:16;18.38;;;5.68;;
48685;SDS011;34485;51.536;3.816;2023-07-31T02:26:42;21.97;;;6.30;;
48685;SDS011;34485;51.536;3.816;2023-07-31T02:29:08;17.27;;;6.73;;
48685;SDS011;34485;51.536;3.816;2023-07-31T02:31:33;14.90;;;5.47;;
48685;SDS011;34485;51.536;3.816;2023-07-31T02:33:59;13.70;;;4.97;;
48685;SDS011;34485;51.536;3.816;2023-07-31T02:36:25;19.27;;;5.90;;
48685;SDS011;34485;51.536;3.816;2023-07-31T02:38:50;14.70;;;5.43;;
48685;SDS011;34485;51.536;3.816;2023-07-31T02:41:16;17.33;;;6.10;;
48685;SDS011;34485;51.536;3.816;2023-07-31T02:43:41;16.77;;;5.90;;
48685;SDS011;34485;51.536;3.816;2023-07-31T02:46:07;17.80;;;5.85;;
48685;SDS011;34485;51.536;3.816;2023-07-31T02:48:33;15.23;;;5.63;;
48685;SDS011;34485;51.536;3.816;2023-07-31T02:50:58;18.00;;;4.93;;
48685;SDS011;34485;51.536;3.816;2023-07-31T02:53:24;14.03;;;5.87;;
48685;SDS011;34485;51.536;3.816;2023-07-31T02:55:49;13.23;;;5.27;;
48685;SDS011;34485;51.536;3.816;2023-07-31T02:58:15;17.13;;;5.95;;
48685;SDS011;34485;51.536;3.816;2023-07-31T03:00:44;14.00;;;5.77;;
48685;SDS011;34485;51.536;3.816;2023-07-31T03:03:09;17.98;;;4.20;;
48685;SDS011;34485;51.536;3.816;2023-07-31T03:05:35;18.33;;;6.20;;
48685;SDS011;34485;51.536;3.816;2023-07-31T03:08:01;17.50;;;6.45;;
48685;SDS011;34485;51.536;3.816;2023-07-31T03:10:27;18.03;;;6.90;;
48685;SDS011;34485;51.536;3.816;2023-07-31T03:12:52;19.40;;;6.75;;
48685;SDS011;34485;51.536;3.816;2023-07-31T03:15:18;19.47;;;6.27;;
48685;SDS011;34485;51.536;3.816;2023-07-31T03:17:43;16.30;;;6.00;;
48685;SDS011;34485;51.536;3.816;2023-07-31T03:20:09;18.25;;;6.05;;
48685;SDS011;34485;51.536;3.816;2023-07-31T03:22:35;17.92;;;5.47;;
48685;SDS011;34485;51.536;3.816;2023-07-31T03:25:01;16.50;;;6.10;;
48685;SDS011;34485;51.536;3.816;2023-07-31T03:27:27;13.43;;;5.30;;
48685;SDS011;34485;51.536;3.816;2023-07-31T03:29:53;14.70;;;5.90;;
48685;SDS011;34485;51.536;3.816;2023-07-31T03:32:18;14.20;;;4.90;;
48685;SDS011;34485;51.536;3.816;2023-07-31T03:34:44;17.40;;;5.23;;
48685;SDS011;34485;51.536;3.816;2023-07-31T03:37:10;15.20;;;6.33;;
48685;SDS011;34485;51.536;3.816;2023-07-31T03:39:35;21.15;;;5.63;;
48685;SDS011;34485;51.536;3.816;2023-07-31T03:42:01;17.27;;;5.50;;
48685;SDS011;34485;51.536;3.816;2023-07-31T03:44:27;23.23;;;6.30;;
48685;SDS011;34485;51.536;3.816;2023-07-31T03:46:53;15.57;;;6.40;;
48685;SDS011;34485;51.536;3.816;2023-07-31T03:49:18;13.02;;;5.97;;
48685;SDS011;34485;51.536;3.816;2023-07-31T03:51:44;20.57;;;4.90;;
48685;SDS011;34485;51.536;3.816;2023-07-31T03:54:09;15.68;;;5.85;;
48685;SDS011;34485;51.536;3.816;2023-07-31T03:56:35;12.50;;;5.20;;
48685;SDS011;34485;51.536;3.816;2023-07-31T03:59:01;18.77;;;5.13;;
48685;SDS011;34485;51.536;3.816;2023-07-31T04:01:26;15.00;;;5.30;;
48685;SDS011;34485;51.536;3.816;2023-07-31T04:03:52;17.53;;;5.73;;
48685;SDS011;34485;51.536;3.816;2023-07-31T04:06:17;12.18;;;5.55;;
48685;SDS011;34485;51.536;3.816;2023-07-31T04:08:43;16.30;;;4.87;;
48685;SDS011;34485;51.536;3.816;2023-07-31T04:11:10;12.60;;;4.68;;
48685;SDS011;34485;51.536;3.816;2023-07-31T04:13:36;9.45;;;4.95;;
48685;SDS011;34485;51.536;3.816;2023-07-31T04:16:02;14.40;;;5.07;;
48685;SDS011;34485;51.536;3.816;2023-07-31T04:18:28;10.20;;;4.47;;
48685;SDS011;34485;51.536;3.816;2023-07-31T04:20:55;9.20;;;3.93;;
48685;SDS011;34485;51.536;3.816;2023-07-31T04:23:23;11.52;;;4.60;;
48685;SDS011;34485;51.536;3.816;2023-07-31T04:25:49;19.27;;;5.88;;
48685;SDS011;34485;51.536;3.816;2023-07-31T04:28:14;14.87;;;4.83;;
48685;SDS011;34485;51.536;3.816;2023-07-31T04:30:40;14.48;;;5.22;;
48685;SDS011;34485;51.536;3.816;2023-07-31T04:33:06;16.77;;;5.20;;
48685;SDS011;34485;51.536;3.816;2023-07-31T04:35:31;12.80;;;5.05;;
48685;SDS011;34485;51.536;3.816;2023-07-31T04:37:57;12.87;;;4.70;;
48685;SDS011;34485;51.536;3.816;2023-07-31T04:40:22;19.97;;;5.87;;
48685;SDS011;34485;51.536;3.816;2023-07-31T04:42:48;15.52;;;4.93;;
48685;SDS011;34485;51.536;3.816;2023-07-31T04:45:14;7.33;;;4.23;;
48685;SDS011;34485;51.536;3.816;2023-07-31T04:47:39;12.65;;;5.32;;
48685;SDS011;34485;51.536;3.816;2023-07-31T04:50:05;13.50;;;5.40;;
48685;SDS011;34485;51.536;3.816;2023-07-31T04:52:31;14.00;;;5.20;;
48685;SDS011;34485;51.536;3.816;2023-07-31T04:54:57;17.90;;;6.50;;
48685;SDS011;34485;51.536;3.816;2023-07-31T04:57:22;7.43;;;4.43;;
48685;SDS011;34485;51.536;3.816;2023-07-31T04:59:48;18.33;;;6.83;;
48685;SDS011;34485;51.536;3.816;2023-07-31T05:02:13;8.43;;;5.37;;
48685;SDS011;34485;51.536;3.816;2023-07-31T05:04:39;16.17;;;5.13;;
48685;SDS011;34485;51.536;3.816;2023-07-31T05:07:04;14.60;;;5.37;;
48685;SDS011;34485;51.536;3.816;2023-07-31T05:09:30;12.05;;;4.20;;
48685;SDS011;34485;51.536;3.816;2023-07-31T05:11:56;14.67;;;4.83;;
48685;SDS011;34485;51.536;3.816;2023-07-31T05:14:21;10.70;;;4.70;;
48685;SDS011;34485;51.536;3.816;2023-07-31T05:16:48;14.27;;;4.83;;
48685;SDS011;34485;51.536;3.816;2023-07-31T05:19:13;11.18;;;5.55;;
48685;SDS011;34485;51.536;3.816;2023-07-31T05:21:39;11.83;;;5.60;;
48685;SDS011;34485;51.536;3.816;2023-07-31T05:24:05;13.68;;;4.93;;
48685;SDS011;34485;51.536;3.816;2023-07-31T05:26:30;24.70;;;4.77;;
48685;SDS011;34485;51.536;3.816;2023-07-31T05:28:56;10.23;;;4.78;;
48685;SDS011;34485;51.536;3.816;2023-07-31T05:31:22;11.82;;;5.28;;
48685;SDS011;34485;51.536;3.816;2023-07-31T05:33:49;7.00;;;3.57;;
48685;SDS011;34485;51.536;3.816;2023-07-31T05:36:15;12.27;;;4.50;;
48685;SDS011;34485;51.536;3.816;2023-07-31T05:38:41;13.05;;;4.90;;
48685;SDS011;34485;51.536;3.816;2023-07-31T05:41:09;10.00;;;3.97;;
48685;SDS011;34485;51.536;3.816;2023-07-31T05:43:35;14.07;;;4.50;;
48685;SDS011;34485;51.536;3.816;2023-07-31T05:46:00;9.75;;;3.80;;
48685;SDS011;34485;51.536;3.816;2023-07-31T05:48:26;6.73;;;3.90;;
48685;SDS011;34485;51.536;3.816;2023-07-31T05:50:52;11.52;;;4.00;;
48685;SDS011;34485;51.536;3.816;2023-07-31T05:53:17;7.57;;;4.17;;
48685;SDS011;34485;51.536;3.816;2023-07-31T05:55:43;5.70;;;3.05;;
48685;SDS011;34485;51.536;3.816;2023-07-31T05:58:08;8.23;;;4.50;;
48685;SDS011;34485;51.536;3.816;2023-07-31T06:00:34;8.97;;;3.67;;
48685;SDS011;34485;51.536;3.816;2023-07-31T06:03:00;8.32;;;3.60;;
48685;SDS011;34485;51.536;3.816;2023-07-31T06:05:25;13.77;;;3.47;;
48685;SDS011;34485;51.536;3.816;2023-07-31T06:07:53;8.25;;;2.97;;
48685;SDS011;34485;51.536;3.816;2023-07-31T06:10:18;4.37;;;3.20;;
48685;SDS011;34485;51.536;3.816;2023-07-31T06:12:44;5.97;;;3.22;;
48685;SDS011;34485;51.536;3.816;2023-07-31T06:15:10;4.23;;;3.70;;
48685;SDS011;34485;51.536;3.816;2023-07-31T06:17:36;7.93;;;3.28;;
48685;SDS011;34485;51.536;3.816;2023-07-31T06:20:01;5.60;;;4.33;;
48685;SDS011;34485;51.536;3.816;2023-07-31T06:22:30;7.10;;;2.92;;
48685;SDS011;34485;51.536;3.816;2023-07-31T06:24:56;5.95;;;3.83;;
48685;SDS011;34485;51.536;3.816;2023-07-31T06:27:22;6.30;;;3.75;;
48685;SDS011;34485;51.536;3.816;2023-07-31T06:29:47;5.47;;;3.30;;
48685;SDS011;34485;51.536;3.816;2023-07-31T06:32:13;6.38;;;3.65;;
48685;SDS011;34485;51.536;3.816;2023-07-31T06:34:39;9.77;;;3.17;;
48685;SDS011;34485;51.536;3.816;2023-07-31T06:37:04;8.03;;;3.33;;
48685;SDS011;34485;51.536;3.816;2023-07-31T06:39:30;7.30;;;3.80;;
48685;SDS011;34485;51.536;3.816;2023-07-31T06:41:56;7.00;;;4.82;;
48685;SDS011;34485;51.536;3.816;2023-07-31T06:44:21;10.93;;;3.63;;
48685;SDS011;34485;51.536;3.816;2023-07-31T06:46:47;6.82;;;3.75;;
48685;SDS011;34485;51.536;3.816;2023-07-31T06:49:13;5.70;;;4.00;;
48685;SDS011;34485;51.536;3.816;2023-07-31T06:51:40;5.75;;;3.72;;
48685;SDS011;34485;51.536;3.816;2023-07-31T06:54:06;9.23;;;3.70;;
48685;SDS011;34485;51.536;3.816;2023-07-31T06:56:32;3.73;;;2.90;;
48685;SDS011;34485;51.536;3.816;2023-07-31T06:58:58;5.25;;;3.90;;
48685;SDS011;34485;51.536;3.816;2023-07-31T07:01:23;14.87;;;4.40;;
48685;SDS011;34485;51.536;3.816;2023-07-31T07:03:49;3.55;;;3.05;;
48685;SDS011;34485;51.536;3.816;2023-07-31T07:06:16;6.10;;;3.50;;
48685;SDS011;34485;51.536;3.816;2023-07-31T07:08:44;3.75;;;3.42;;
48685;SDS011;34485;51.536;3.816;2023-07-31T07:11:10;5.20;;;2.83;;
48685;SDS011;34485;51.536;3.816;2023-07-31T07:13:36;10.03;;;3.20;;
48685;SDS011;34485;51.536;3.816;2023-07-31T07:16:01;3.60;;;3.13;;
48685;SDS011;34485;51.536;3.816;2023-07-31T07:18:27;6.03;;;3.53;;
48685;SDS011;34485;51.536;3.816;2023-07-31T07:20:53;5.22;;;3.10;;
48685;SDS011;34485;51.536;3.816;2023-07-31T07:23:19;5.20;;;3.15;;
48685;SDS011;34485;51.536;3.816;2023-07-31T07:25:46;4.60;;;2.60;;
48685;SDS011;34485;51.536;3.816;2023-07-31T07:28:12;6.30;;;2.72;;
48685;SDS011;34485;51.536;3.816;2023-07-31T07:30:38;3.33;;;3.00;;
48685;SDS011;34485;51.536;3.816;2023-07-31T07:33:04;7.35;;;2.63;;
48685;SDS011;34485;51.536;3.816;2023-07-31T07:35:30;4.13;;;3.17;;
48685;SDS011;34485;51.536;3.816;2023-07-31T07:37:58;8.03;;;3.47;;
48685;SDS011;34485;51.536;3.816;2023-07-31T07:40:24;7.93;;;2.60;;
48685;SDS011;34485;51.536;3.816;2023-07-31T07:42:49;4.73;;;2.50;;
48685;SDS011;34485;51.536;3.816;2023-07-31T07:45:15;9.60;;;3.05;;
48685;SDS011;34485;51.536;3.816;2023-07-31T07:47:41;5.97;;;2.03;;
48685;SDS011;34485;51.536;3.816;2023-07-31T07:50:07;7.47;;;2.67;;
48685;SDS011;34485;51.536;3.816;2023-07-31T07:52:33;5.53;;;2.78;;
48685;SDS011;34485;51.536;3.816;2023-07-31T07:54:59;4.50;;;3.58;;
48685;SDS011;34485;51.536;3.816;2023-07-31T07:57:25;3.50;;;3.20;;
48685;SDS011;34485;51.536;3.816;2023-07-31T07:59:51;6.00;;;3.13;;
48685;SDS011;34485;51.536;3.816;2023-07-31T08:02:16;5.77;;;2.80;;
48685;SDS011;34485;51.536;3.816;2023-07-31T08:04:42;3.63;;;2.30;;
48685;SDS011;34485;51.536;3.816;2023-07-31T08:07:07;5.27;;;2.63;;
48685;SDS011;34485;51.536;3.816;2023-07-31T08:09:35;3.63;;;3.28;;
48685;SDS011;34485;51.536;3.816;2023-07-31T08:12:01;3.47;;;3.00;;
48685;SDS011;34485;51.536;3.816;2023-07-31T08:14:28;2.60;;;2.40;;
48685;SDS011;34485;51.536;3.816;2023-07-31T08:16:54;3.23;;;3.03;;
48685;SDS011;34485;51.536;3.816;2023-07-31T08:19:20;4.50;;;2.83;;
48685;SDS011;34485;51.536;3.816;2023-07-31T08:21:45;5.88;;;3.03;;
48685;SDS011;34485;51.536;3.816;2023-07-31T08:24:11;2.80;;;2.60;;
48685;SDS011;34485;51.536;3.816;2023-07-31T08:26:36;4.67;;;2.17;;
48685;SDS011;34485;51.536;3.816;2023-07-31T08:29:02;3.78;;;2.17;;
48685;SDS011;34485;51.536;3.816;2023-07-31T08:31:28;7.57;;;2.57;;
48685;SDS011;34485;51.536;3.816;2023-07-31T08:33:54;2.85;;;2.42;;
48685;SDS011;34485;51.536;3.816;2023-07-31T08:36:20;3.67;;;2.22;;
48685;SDS011;34485;51.536;3.816;2023-07-31T08:38:46;5.27;;;2.83;;
48685;SDS011;34485;51.536;3.816;2023-07-31T08:41:12;5.88;;;2.45;;
48685;SDS011;34485;51.536;3.816;2023-07-31T08:43:38;19.27;;;2.80;;
48685;SDS011;34485;51.536;3.816;2023-07-31T08:46:04;2.47;;;2.17;;
48685;SDS011;34485;51.536;3.816;2023-07-31T08:48:31;1.87;;;1.70;;
48685;SDS011;34485;51.536;3.816;2023-07-31T08:50:57;3.30;;;1.92;;
48685;SDS011;34485;51.536;3.816;2023-07-31T08:53:23;2.35;;;2.15;;
48685;SDS011;34485;51.536;3.816;2023-07-31T08:55:49;2.73;;;2.10;;
48685;SDS011;34485;51.536;3.816;2023-07-31T08:58:15;2.67;;;2.47;;
48685;SDS011;34485;51.536;3.816;2023-07-31T09:00:42;6.75;;;2.05;;
48685;SDS011;34485;51.536;3.816;2023-07-31T09:03:11;4.68;;;3.38;;
48685;SDS011;34485;51.536;3.816;2023-07-31T09:05:41;2.60;;;2.40;;
48685;SDS011;34485;51.536;3.816;2023-07-31T09:08:09;2.92;;;2.22;;
48685;SDS011;34485;51.536;3.816;2023-07-31T09:10:47;4.38;;;2.65;;
48685;SDS011;34485;51.536;3.816;2023-07-31T09:13:14;3.63;;;2.50;;
48685;SDS011;34485;51.536;3.816;2023-07-31T09:15:42;3.25;;;2.35;;
48685;SDS011;34485;51.536;3.816;2023-07-31T09:18:09;2.20;;;2.10;;
48685;SDS011;34485;51.536;3.816;2023-07-31T09:20:35;3.50;;;1.98;;
48685;SDS011;34485;51.536;3.816;2023-07-31T09:23:20;3.78;;;2.20;;
48685;SDS011;34485;51.536;3.816;2023-07-31T09:25:46;2.78;;;2.10;;
48685;SDS011;34485;51.536;3.816;2023-07-31T09:28:12;3.90;;;2.20;;
48685;SDS011;34485;51.536;3.816;2023-07-31T09:30:50;5.15;;;2.70;;
48685;SDS011;34485;51.536;3.816;2023-07-31T09:33:17;3.37;;;2.60;;
48685;SDS011;34485;51.536;3.816;2023-07-31T09:35:44;3.90;;;3.20;;
48685;SDS011;34485;51.536;3.816;2023-07-31T09:38:10;3.78;;;2.58;;
48685;SDS011;34485;51.536;3.816;2023-07-31T09:40:38;3.65;;;3.10;;
48685;SDS011;34485;51.536;3.816;2023-07-31T09:43:05;5.13;;;3.38;;
48685;SDS011;34485;51.536;3.816;2023-07-31T09:45:54;4.03;;;3.27;;
48685;SDS011;34485;51.536;3.816;2023-07-31T09:48:22;5.45;;;2.65;;
48685;SDS011;34485;51.536;3.816;2023-07-31T09:51:26;5.85;;;2.38;;
48685;SDS011;34485;51.536;3.816;2023-07-31T09:53:52;6.10;;;3.53;;
48685;SDS011;34485;51.536;3.816;2023-07-31T09:56:18;3.47;;;2.47;;
48685;SDS011;34485;51.536;3.816;2023-07-31T09:58:46;2.95;;;2.75;;
48685;SDS011;34485;51.536;3.816;2023-07-31T10:01:12;3.17;;;2.90;;
48685;SDS011;34485;51.536;3.816;2023-07-31T10:03:39;3.33;;;2.30;;
48685;SDS011;34485;51.536;3.816;2023-07-31T10:06:05;13.80;;;2.65;;
48685;SDS011;34485;51.536;3.816;2023-07-31T10:08:34;2.67;;;2.15;;
48685;SDS011;34485;51.536;3.816;2023-07-31T10:11:01;6.32;;;2.83;;
48685;SDS011;34485;51.536;3.816;2023-07-31T10:13:28;2.67;;;2.33;;
48685;SDS011;34485;51.536;3.816;2023-07-31T10:15:58;3.07;;;2.23;;
48685;SDS011;34485;51.536;3.816;2023-07-31T10:18:25;4.07;;;2.03;;
48685;SDS011;34485;51.536;3.816;2023-07-31T10:20:51;3.22;;;2.80;;
48685;SDS011;34485;51.536;3.816;2023-07-31T10:23:17;2.28;;;2.08;;
48685;SDS011;34485;51.536;3.816;2023-07-31T10:25:43;2.53;;;2.33;;
48685;SDS011;34485;51.536;3.816;2023-07-31T10:28:10;5.83;;;2.20;;
48685;SDS011;34485;51.536;3.816;2023-07-31T10:30:37;2.30;;;1.85;;
48685;SDS011;34485;51.536;3.816;2023-07-31T10:33:04;2.63;;;2.05;;
48685;SDS011;34485;51.536;3.816;2023-07-31T10:35:31;2.95;;;2.17;;
48685;SDS011;34485;51.536;3.816;2023-07-31T10:38:03;2.40;;;1.83;;
48685;SDS011;34485;51.536;3.816;2023-07-31T10:40:37;2.03;;;1.85;;
48685;SDS011;34485;51.536;3.816;2023-07-31T10:43:03;2.42;;;2.22;;
48685;SDS011;34485;51.536;3.816;2023-07-31T10:45:37;2.40;;;1.60;;
48685;SDS011;34485;51.536;3.816;2023-07-31T10:50:50;2.00;;;1.40;;
48685;SDS011;34485;51.536;3.816;2023-07-31T10:53:25;5.45;;;1.98;;
48685;SDS011;34485;51.536;3.816;2023-07-31T10:56:01;4.65;;;1.48;;
48685;SDS011;34485;51.536;3.816;2023-07-31T10:58:29;2.85;;;2.13;;
48685;SDS011;34485;51.536;3.816;2023-07-31T11:00:57;3.90;;;1.70;;
48685;SDS011;34485;51.536;3.816;2023-07-31T11:03:25;1.42;;;1.33;;
48685;SDS011;34485;51.536;3.816;2023-07-31T11:05:52;2.63;;;2.47;;
48685;SDS011;34485;51.536;3.816;2023-07-31T11:08:30;3.85;;;1.85;;
48685;SDS011;34485;51.536;3.816;2023-07-31T11:16:11;2.03;;;1.83;;
48685;SDS011;34485;51.536;3.816;2023-07-31T11:18:38;2.50;;;2.28;;
48685;SDS011;34485;51.536;3.816;2023-07-31T11:21:06;2.72;;;2.03;;
48685;SDS011;34485;51.536;3.816;2023-07-31T11:23:32;2.45;;;2.20;;
48685;SDS011;34485;51.536;3.816;2023-07-31T11:26:01;1.40;;;1.30;;
48685;SDS011;34485;51.536;3.816;2023-07-31T11:28:30;1.85;;;1.73;;
48685;SDS011;34485;51.536;3.816;2023-07-31T11:31:00;3.05;;;2.67;;
48685;SDS011;34485;51.536;3.816;2023-07-31T11:33:27;4.25;;;2.33;;
48685;SDS011;34485;51.536;3.816;2023-07-31T11:35:52;2.80;;;2.60;;
48685;SDS011;34485;51.536;3.816;2023-07-31T11:40:52;3.67;;;2.63;;
48685;SDS011;34485;51.536;3.816;2023-07-31T11:43:19;3.60;;;3.13;;
48685;SDS011;34485;51.536;3.816;2023-07-31T11:45:49;3.27;;;3.07;;
48685;SDS011;34485;51.536;3.816;2023-07-31T11:48:19;2.83;;;2.60;;
48685;SDS011;34485;51.536;3.816;2023-07-31T11:50:46;3.45;;;3.13;;
48685;SDS011;34485;51.536;3.816;2023-07-31T11:53:14;3.45;;;3.15;;
48685;SDS011;34485;51.536;3.816;2023-07-31T11:55:42;3.83;;;2.63;;
48685;SDS011;34485;51.536;3.816;2023-07-31T11:58:08;3.37;;;3.17;;
48685;SDS011;34485;51.536;3.816;2023-07-31T12:00:35;5.15;;;3.30;;
48685;SDS011;34485;51.536;3.816;2023-07-31T12:03:00;3.53;;;3.25;;
48685;SDS011;34485;51.536;3.816;2023-07-31T12:05:26;2.60;;;2.30;;
48685;SDS011;34485;51.536;3.816;2023-07-31T12:07:53;3.22;;;2.92;;
48685;SDS011;34485;51.536;3.816;2023-07-31T12:10:29;5.63;;;2.70;;
48685;SDS011;34485;51.536;3.816;2023-07-31T12:13:07;3.73;;;2.50;;
48685;SDS011;34485;51.536;3.816;2023-07-31T12:15:42;2.30;;;1.70;;
48685;SDS011;34485;51.536;3.816;2023-07-31T12:18:12;4.15;;;2.50;;
48685;SDS011;34485;51.536;3.816;2023-07-31T12:23:12;7.57;;;2.42;;
48685;SDS011;34485;51.536;3.816;2023-07-31T12:25:44;2.20;;;2.00;;
48685;SDS011;34485;51.536;3.816;2023-07-31T12:28:10;2.47;;;2.03;;
48685;SDS011;34485;51.536;3.816;2023-07-31T12:30:39;2.72;;;2.53;;
48685;SDS011;34485;51.536;3.816;2023-07-31T12:33:14;1.98;;;1.88;;
48685;SDS011;34485;51.536;3.816;2023-07-31T12:35:42;5.53;;;2.03;;
48685;SDS011;34485;51.536;3.816;2023-07-31T12:38:09;3.03;;;2.67;;
48685;SDS011;34485;51.536;3.816;2023-07-31T12:40:37;3.37;;;2.30;;
48685;SDS011;34485;51.536;3.816;2023-07-31T12:43:04;3.10;;;2.90;;
48685;SDS011;34485;51.536;3.816;2023-07-31T12:45:30;3.35;;;2.00;;
48685;SDS011;34485;51.536;3.816;2023-07-31T12:47:56;2.30;;;2.10;;
48685;SDS011;34485;51.536;3.816;2023-07-31T12:50:22;3.13;;;2.00;;
48685;SDS011;34485;51.536;3.816;2023-07-31T12:52:48;2.40;;;2.07;;
48685;SDS011;34485;51.536;3.816;2023-07-31T12:55:14;2.72;;;2.63;;
48685;SDS011;34485;51.536;3.816;2023-07-31T12:57:40;2.30;;;2.10;;
48685;SDS011;34485;51.536;3.816;2023-07-31T13:00:08;4.10;;;2.25;;
48685;SDS011;34485;51.536;3.816;2023-07-31T13:02:34;2.95;;;2.35;;
48685;SDS011;34485;51.536;3.816;2023-07-31T13:05:00;3.10;;;2.73;;
48685;SDS011;34485;51.536;3.816;2023-07-31T13:07:26;3.05;;;2.72;;
48685;SDS011;34485;51.536;3.816;2023-07-31T13:09:51;3.38;;;3.17;;
48685;SDS011;34485;51.536;3.816;2023-07-31T13:12:17;3.37;;;3.07;;
48685;SDS011;34485;51.536;3.816;2023-07-31T13:14:43;2.97;;;2.73;;
48685;SDS011;34485;51.536;3.816;2023-07-31T13:17:08;4.07;;;2.90;;
48685;SDS011;34485;51.536;3.816;2023-07-31T13:19:34;3.97;;;2.67;;
48685;SDS011;34485;51.536;3.816;2023-07-31T13:21:59;4.00;;;2.70;;
48685;SDS011;34485;51.536;3.816;2023-07-31T13:24:25;3.60;;;2.87;;
48685;SDS011;34485;51.536;3.816;2023-07-31T13:26:51;2.80;;;2.60;;
48685;SDS011;34485;51.536;3.816;2023-07-31T13:29:16;4.93;;;2.53;;
48685;SDS011;34485;51.536;3.816;2023-07-31T13:31:42;3.57;;;2.97;;
48685;SDS011;34485;51.536;3.816;2023-07-31T13:34:07;3.40;;;2.78;;
48685;SDS011;34485;51.536;3.816;2023-07-31T13:36:33;3.87;;;3.10;;
48685;SDS011;34485;51.536;3.816;2023-07-31T13:38:59;3.47;;;3.17;;
48685;SDS011;34485;51.536;3.816;2023-07-31T13:41:26;2.53;;;2.33;;
48685;SDS011;34485;51.536;3.816;2023-07-31T13:43:51;3.80;;;2.67;;
48685;SDS011;34485;51.536;3.816;2023-07-31T13:46:17;2.65;;;2.45;;
48685;SDS011;34485;51.536;3.816;2023-07-31T13:48:43;3.20;;;2.87;;
48685;SDS011;34485;51.536;3.816;2023-07-31T13:51:08;8.27;;;3.27;;
48685;SDS011;34485;51.536;3.816;2023-07-31T13:53:34;3.40;;;3.20;;
48685;SDS011;34485;51.536;3.816;2023-07-31T13:55:59;2.90;;;2.47;;
48685;SDS011;34485;51.536;3.816;2023-07-31T13:58:25;5.33;;;2.43;;
48685;SDS011;34485;51.536;3.816;2023-07-31T14:00:51;2.50;;;1.90;;
48685;SDS011;34485;51.536;3.816;2023-07-31T14:03:16;2.30;;;2.17;;
48685;SDS011;34485;51.536;3.816;2023-07-31T14:05:42;2.17;;;2.08;;
48685;SDS011;34485;51.536;3.816;2023-07-31T14:08:07;3.37;;;1.97;;
48685;SDS011;34485;51.536;3.816;2023-07-31T14:10:33;2.23;;;2.10;;
48685;SDS011;34485;51.536;3.816;2023-07-31T14:12:58;1.90;;;1.80;;
48685;SDS011;34485;51.536;3.816;2023-07-31T14:15:24;3.33;;;1.97;;
48685;SDS011;34485;51.536;3.816;2023-07-31T14:17:50;2.25;;;2.15;;
48685;SDS011;34485;51.536;3.816;2023-07-31T14:20:15;2.13;;;2.03;;
48685;SDS011;34485;51.536;3.816;2023-07-31T14:22:41;3.17;;;2.72;;
48685;SDS011;34485;51.536;3.816;2023-07-31T14:25:07;3.10;;;2.60;;
48685;SDS011;34485;51.536;3.816;2023-07-31T14:27:35;3.08;;;1.63;;
48685;SDS011;34485;51.536;3.816;2023-07-31T14:30:01;2.42;;;2.20;;
48685;SDS011;34485;51.536;3.816;2023-07-31T14:32:27;8.57;;;2.60;;
48685;SDS011;34485;51.536;3.816;2023-07-31T14:34:52;2.38;;;1.77;;
48685;SDS011;34485;51.536;3.816;2023-07-31T14:37:19;2.10;;;2.00;;
48685;SDS011;34485;51.536;3.816;2023-07-31T14:39:45;3.30;;;3.00;;
48685;SDS011;34485;51.536;3.816;2023-07-31T14:42:10;2.47;;;2.27;;
48685;SDS011;34485;51.536;3.816;2023-07-31T14:44:36;2.03;;;1.88;;
48685;SDS011;34485;51.536;3.816;2023-07-31T14:47:02;2.23;;;2.03;;
48685;SDS011;34485;51.536;3.816;2023-07-31T14:49:27;3.17;;;2.30;;
48685;SDS011;34485;51.536;3.816;2023-07-31T14:51:53;3.07;;;2.57;;
48685;SDS011;34485;51.536;3.816;2023-07-31T14:54:19;2.22;;;1.83;;
48685;SDS011;34485;51.536;3.816;2023-07-31T14:56:45;2.70;;;2.50;;
48685;SDS011;34485;51.536;3.816;2023-07-31T14:59:10;2.08;;;1.98;;